Time;durP1;ratioP1;P1;durP2;ratioP2;P2;SDS_P1;SDS_P2;PMS_P1;PMS_P2;Temp;Humidity;BMP_temperature;BMP_pressure;BME280_temperature;BME280_humidity;BME280_pressure;Samples;Min_cycle;Max_cycle;Signal;HPM_P1;HPM_P2
2021/12/12 00:02:28;;;;;;;14.50;6.93;;;;;;;0.25;97.93;100049.19;4954217;28;20026;-67
2021/12/12 00:04:54;;;;;;;19.60;6.15;;;;;;;0.34;97.57;100040.34;4949611;28;20046;-67
2021/12/12 00:07:27;;;;;;;13.75;6.93;;;;;;;0.40;97.38;100042.34;4937666;28;20023;-67
2021/12/12 00:09:55;;;;;;;20.88;7.22;;;;;;;0.43;97.05;100047.31;4953639;28;20039;-67
2021/12/12 00:12:24;;;;;;;14.90;6.57;;;;;;;0.46;97.33;100047.00;4954371;28;20034;-67
2021/12/12 00:14:49;;;;;;;17.48;5.90;;;;;;;0.45;97.65;100045.38;4953574;28;20410;-67
2021/12/12 00:17:15;;;;;;;17.67;6.90;;;;;;;0.43;97.31;100053.44;4954383;28;20033;-67
2021/12/12 00:19:41;;;;;;;13.57;6.57;;;;;;;0.31;97.89;100044.13;4951822;28;20042;-67
2021/12/12 00:22:09;;;;;;;17.95;6.63;;;;;;;0.32;98.33;100034.41;4951824;28;20037;-67
2021/12/12 00:24:34;;;;;;;16.23;7.43;;;;;;;0.30;98.61;100034.56;4930690;28;20031;-67
2021/12/12 00:27:00;;;;;;;17.65;6.82;;;;;;;0.30;98.63;100025.81;4922830;28;20496;-68
2021/12/12 00:29:26;;;;;;;20.02;7.78;;;;;;;0.29;98.67;100025.00;4950572;28;20618;-67
2021/12/12 00:31:57;;;;;;;18.08;7.57;;;;;;;0.31;98.52;100022.22;4926906;28;20122;-68
2021/12/12 00:34:22;;;;;;;;;;;;;;;0.19;98.66;100030.38;4952690;28;20089;-67
2021/12/12 00:36:48;;;;;;;16.55;7.30;;;;;;;0.14;99.35;100037.09;4945900;28;19922;-67
2021/12/12 00:39:16;;;;;;;14.57;7.38;;;;;;;0.30;99.38;100041.63;4939284;28;20035;-68
2021/12/12 00:41:59;;;;;;;23.50;7.97;;;;;;;0.35;99.45;100044.63;4948361;28;20027;-67
2021/12/12 00:44:24;;;;;;;19.90;7.10;;;;;;;0.39;99.00;100048.63;4951914;28;20039;-67
2021/12/12 00:46:50;;;;;;;18.45;7.30;;;;;;;0.32;98.99;100044.94;4938067;28;20030;-67
2021/12/12 00:49:16;;;;;;;24.65;7.88;;;;;;;0.30;98.97;100052.19;4953182;28;20035;-67
2021/12/12 00:51:42;;;;;;;20.52;7.80;;;;;;;0.29;99.32;100040.00;4936139;28;20765;-66
2021/12/12 00:54:08;;;;;;;19.23;7.68;;;;;;;0.36;99.03;100051.56;4942413;28;20034;-66
2021/12/12 00:56:34;;;;;;;21.13;7.28;;;;;;;0.33;98.96;100052.72;4945383;28;20039;-66
2021/12/12 00:58:59;;;;;;;27.17;7.30;;;;;;;0.30;98.86;100052.19;4944607;28;20105;-65
2021/12/12 01:01:30;;;;;;;18.35;7.50;;;;;;;0.37;99.02;100055.84;4940059;28;20042;-66
2021/12/12 01:04:02;;;;;;;18.83;7.70;;;;;;;0.39;99.16;100061.81;4945153;28;20031;-65
2021/12/12 01:06:28;;;;;;;15.02;7.68;;;;;;;0.31;99.44;100052.03;4941375;28;20035;-66
2021/12/12 01:08:55;;;;;;;17.95;7.20;;;;;;;0.36;99.16;100051.56;4952390;28;20077;-66
2021/12/12 01:11:34;;;;;;;23.60;8.65;;;;;;;0.35;99.23;100049.91;4941779;28;20314;-66
2021/12/12 01:14:00;;;;;;;22.23;8.38;;;;;;;0.37;99.07;100054.03;4953826;28;20138;-65
2021/12/12 01:16:36;;;;;;;30.13;7.80;;;;;;;0.40;99.25;100064.28;4941214;28;20027;-67
2021/12/12 01:19:09;;;;;;;15.65;7.28;;;;;;;0.49;98.67;100067.78;4938392;28;20089;-68
2021/12/12 01:21:39;;;;;;;15.70;7.22;;;;;;;0.51;99.06;100070.28;4939476;28;20038;-65
2021/12/12 01:24:11;;;;;;;22.00;7.33;;;;;;;0.57;98.92;100067.81;4946003;28;20034;-66
2021/12/12 01:26:37;;;;;;;18.83;7.72;;;;;;;0.58;98.83;100061.59;4939786;28;20858;-67
2021/12/12 01:29:02;;;;;;;22.88;6.38;;;;;;;0.58;99.02;100066.03;4958050;28;20387;-66
2021/12/12 01:31:31;;;;;;;16.75;7.32;;;;;;;0.60;98.76;100062.25;4931510;28;20034;-67
2021/12/12 01:34:09;;;;;;;17.05;6.35;;;;;;;0.70;98.23;100063.94;4945429;28;20512;-65
2021/12/12 01:37:06;;;;;;;16.27;5.78;;;;;;;0.64;98.47;100055.66;4952322;28;20042;-66
2021/12/12 01:39:38;;;;;;;15.65;6.43;;;;;;;0.63;98.52;100056.66;4946665;28;20070;-66
2021/12/12 01:42:20;;;;;;;16.40;7.03;;;;;;;0.53;98.79;100058.59;4954629;28;20118;-66
2021/12/12 01:44:52;;;;;;;12.10;5.10;;;;;;;0.55;98.75;100051.34;4954049;28;20039;-66
2021/12/12 01:47:21;;;;;;;17.13;7.25;;;;;;;0.60;98.65;100048.22;4926637;28;20843;-66
2021/12/12 01:49:49;;;;;;;14.10;6.50;;;;;;;0.56;98.81;100041.63;4950677;28;20045;-65
2021/12/12 01:52:17;;;;;;;17.77;6.75;;;;;;;0.58;99.03;100044.94;4936983;28;20455;-65
2021/12/12 01:54:45;;;;;;;15.10;7.25;;;;;;;0.60;98.74;100054.34;4933151;28;20504;-66
2021/12/12 01:57:18;;;;;;;18.77;7.15;;;;;;;0.67;98.84;100043.16;4953473;28;20469;-65
2021/12/12 01:59:43;;;;;;;21.35;7.05;;;;;;;0.63;98.41;100042.66;4932297;29;20046;-66
2021/12/12 02:02:19;;;;;;;22.67;9.02;;;;;;;0.66;98.29;100041.50;4950435;28;20481;-66
2021/12/12 02:04:50;;;;;;;21.38;7.13;;;;;;;0.63;98.41;100043.47;4931617;28;20841;-66
2021/12/12 02:07:18;;;;;;;28.02;9.15;;;;;;;0.57;98.78;100044.09;4939254;28;20038;-66
2021/12/12 02:09:44;;;;;;;29.40;7.25;;;;;;;0.55;99.09;100042.59;4930724;28;20030;-66
2021/12/12 02:12:10;;;;;;;25.95;8.63;;;;;;;0.58;98.73;100044.94;4936606;28;20082;-66
2021/12/12 02:14:37;;;;;;;19.33;8.00;;;;;;;0.61;98.94;100034.88;4951511;28;20037;-65
2021/12/12 02:17:12;;;;;;;23.55;9.23;;;;;;;0.56;98.93;100028.44;4937982;28;20153;-66
2021/12/12 02:19:50;;;;;;;15.20;7.75;;;;;;;0.60;99.12;100038.50;4942939;28;20108;-65
2021/12/12 02:22:40;;;;;;;14.65;6.43;;;;;;;0.58;99.26;100035.19;4938720;28;20122;-66
2021/12/12 02:35:55;;;;;;;20.77;7.57;;;;;;;0.68;99.66;100039.53;4951881;28;20504;-65
2021/12/12 02:38:29;;;;;;;17.15;7.22;;;;;;;0.72;99.70;100033.75;4957752;28;20055;-65
2021/12/12 02:41:07;;;;;;;20.85;7.65;;;;;;;0.74;100.00;100028.34;4950469;28;20031;-66
2021/12/12 02:43:37;;;;;;;22.90;7.10;;;;;;;0.80;100.00;100023.25;4916440;28;20121;-67
2021/12/12 02:46:03;;;;;;;23.00;7.97;;;;;;;0.88;99.65;100025.09;4936647;28;20037;-65
2021/12/12 02:48:37;;;;;;;22.00;8.00;;;;;;;0.90;99.65;100025.75;4938345;28;20035;-66
2021/12/12 02:51:07;;;;;;;15.23;7.30;;;;;;;0.94;99.44;100024.44;4947995;28;20027;-65
2021/12/12 02:53:41;;;;;;;21.25;9.48;;;;;;;0.91;100.00;100032.69;4951397;28;20038;-65
2021/12/12 02:56:12;;;;;;;16.35;7.50;;;;;;;0.96;99.91;100029.56;4942531;28;20054;-65
2021/12/12 02:58:38;;;;;;;26.92;8.18;;;;;;;0.91;100.00;100032.69;4951629;28;20041;-65
2021/12/12 03:01:14;;;;;;;19.05;8.40;;;;;;;0.94;100.00;100027.06;4943236;28;20196;-65
2021/12/12 03:03:40;;;;;;;17.98;7.97;;;;;;;0.92;100.00;100029.03;4917075;28;20066;-65
2021/12/12 03:06:07;;;;;;;20.05;8.45;;;;;;;0.89;100.00;100026.72;4937528;28;20118;-65
2021/12/12 03:08:33;;;;;;;24.30;8.98;;;;;;;0.86;100.00;100033.16;4935976;28;20078;-65
2021/12/12 03:10:59;;;;;;;19.27;8.40;;;;;;;0.90;100.00;100036.31;4945360;28;20035;-66
2021/12/12 03:13:24;;;;;;;24.23;8.82;;;;;;;0.94;100.00;100021.78;4949066;28;20051;-65
2021/12/12 03:15:52;;;;;;;24.77;8.98;;;;;;;0.94;100.00;100035.00;4957354;28;20035;-66
2021/12/12 03:18:22;;;;;;;23.20;9.57;;;;;;;1.03;100.00;100028.75;4957141;28;20054;-65
2021/12/12 03:20:56;;;;;;;19.42;8.80;;;;;;;1.05;100.00;100034.72;4935731;28;20812;-65
2021/12/12 03:23:34;;;;;;;16.98;9.05;;;;;;;1.16;100.00;100035.41;4950427;28;20047;-65
2021/12/12 03:26:01;;;;;;;19.65;7.97;;;;;;;1.12;100.00;100026.13;4922876;28;20174;-65
2021/12/12 03:28:28;;;;;;;25.42;9.18;;;;;;;1.13;100.00;100028.63;4923712;28;20080;-65
2021/12/12 03:30:55;;;;;;;23.17;9.55;;;;;;;1.14;100.00;100034.72;4948267;28;20033;-66
2021/12/12 03:33:21;;;;;;;23.83;9.25;;;;;;;1.12;100.00;100028.78;4938827;29;20434;-65
2021/12/12 03:35:49;;;;;;;29.48;9.48;;;;;;;1.15;100.00;100031.09;4932229;28;20058;-65
2021/12/12 03:38:14;;;;;;;27.90;8.57;;;;;;;1.08;100.00;100026.47;4937374;28;20038;-65
2021/12/12 03:40:40;;;;;;;33.53;9.48;;;;;;;1.06;100.00;100023.16;4946268;28;20035;-65
2021/12/12 03:43:07;;;;;;;25.40;9.75;;;;;;;1.05;100.00;100020.69;4939239;28;20026;-65
2021/12/12 03:45:32;;;;;;;19.15;9.68;;;;;;;1.05;100.00;100021.50;4952684;28;20043;-65
2021/12/12 03:48:13;;;;;;;20.27;8.48;;;;;;;1.10;100.00;100023.69;4958342;28;20035;-65
2021/12/12 03:50:40;;;;;;;18.65;7.78;;;;;;;1.23;100.00;100025.84;4944737;28;20035;-65
2021/12/12 03:53:06;;;;;;;20.85;8.77;;;;;;;1.37;100.00;100037.56;4946451;28;20027;-65
2021/12/12 03:55:32;;;;;;;24.95;8.80;;;;;;;1.25;100.00;100032.63;4949432;28;20641;-66
2021/12/12 03:57:58;;;;;;;24.67;8.05;;;;;;;1.27;100.00;100035.94;4949895;28;20145;-65
2021/12/12 04:00:26;;;;;;;17.65;7.00;;;;;;;1.25;100.00;100042.34;4935363;28;20567;-65
2021/12/12 04:02:52;;;;;;;24.50;7.95;;;;;;;1.34;100.00;100033.44;4945323;28;20035;-66
2021/12/12 04:05:18;;;;;;;18.92;7.68;;;;;;;1.32;100.00;100032.78;4938534;28;20026;-65
2021/12/12 04:07:43;;;;;;;16.35;7.05;;;;;;;1.40;100.00;100027.53;4951736;28;20531;-65
2021/12/12 04:10:11;;;;;;;21.48;7.60;;;;;;;1.39;100.00;100028.50;4935994;28;20074;-65
2021/12/12 04:12:37;;;;;;;21.50;7.45;;;;;;;1.38;100.00;100029.50;4940139;28;20039;-65
2021/12/12 04:15:03;;;;;;;25.95;7.88;;;;;;;1.45;100.00;100021.75;4953363;28;20818;-65
2021/12/12 04:17:29;;;;;;;18.48;6.45;;;;;;;1.49;100.00;100023.88;4951435;28;20390;-65
2021/12/12 04:19:58;;;;;;;19.45;7.20;;;;;;;1.51;100.00;100026.38;4938202;28;20031;-66
2021/12/12 04:22:23;;;;;;;16.73;5.85;;;;;;;1.50;100.00;100028.19;4944345;28;20401;-65
2021/12/12 04:24:52;;;;;;;25.83;7.35;;;;;;;1.55;100.00;100027.69;4951216;28;20478;-66
2021/12/12 04:27:18;;;;;;;26.88;7.03;;;;;;;1.56;100.00;100039.09;4936119;28;20030;-66
2021/12/12 04:29:45;;;;;;;18.42;5.93;;;;;;;1.57;100.00;100040.72;4925583;28;20035;-66
2021/12/12 04:32:13;;;;;;;12.43;6.15;;;;;;;1.55;100.00;100032.97;4917397;28;20043;-68
2021/12/12 04:34:41;;;;;;;20.33;6.03;;;;;;;1.61;100.00;100028.84;4963124;28;20046;-66
2021/12/12 04:37:10;;;;;;;22.13;6.40;;;;;;;1.67;99.85;100036.09;4944698;28;20110;-66
2021/12/12 04:39:41;;;;;;;16.95;6.07;;;;;;;1.72;99.56;100036.44;4947356;28;20094;-65
2021/12/12 04:42:16;;;;;;;16.60;6.32;;;;;;;1.77;99.38;100035.94;4915674;28;20622;-66
2021/12/12 04:44:42;;;;;;;20.27;6.63;;;;;;;1.75;99.73;100044.06;4954631;28;20035;-66
2021/12/12 04:50:14;;;;;;;15.85;5.68;;;;;;;1.88;100.00;100048.84;4958398;28;20467;-66
2021/12/12 04:53:02;;;;;;;18.20;6.65;;;;;;;1.76;99.36;100045.69;4954825;28;20105;-66
2021/12/12 04:55:29;;;;;;;22.52;6.47;;;;;;;1.72;99.69;100057.56;4929455;28;20070;-66
2021/12/12 04:58:05;;;;;;;21.30;6.13;;;;;;;1.73;99.68;100056.59;4954087;28;20041;-66
2021/12/12 05:00:42;;;;;;;11.73;4.90;;;;;;;1.83;99.56;100056.44;4953198;28;20031;-66
2021/12/12 05:03:14;;;;;;;23.27;5.93;;;;;;;1.87;99.46;100058.59;4969387;28;20050;-65
2021/12/12 05:05:45;;;;;;;16.60;6.40;;;;;;;1.82;99.43;100058.28;4932201;28;20035;-65
2021/12/12 05:08:20;;;;;;;19.77;6.68;;;;;;;1.83;99.04;100057.25;4940360;28;20397;-66
2021/12/12 05:10:52;;;;;;;14.95;5.75;;;;;;;1.82;99.33;100052.13;4935707;28;20102;-65
2021/12/12 05:13:20;;;;;;;15.52;5.57;;;;;;;1.85;99.26;100050.00;4938377;28;20063;-66
2021/12/12 05:15:48;;;;;;;19.88;6.65;;;;;;;1.84;99.39;100043.03;4956826;28;20032;-66
2021/12/12 05:18:19;;;;;;;14.98;4.95;;;;;;;1.86;99.22;100050.81;4956920;28;20089;-65
2021/12/12 05:20:47;;;;;;;21.77;5.00;;;;;;;1.88;98.88;100049.66;4954737;28;20033;-65
2021/12/12 05:23:15;;;;;;;16.13;4.97;;;;;;;1.91;98.63;100040.56;4943766;28;20544;-66
2021/12/12 05:26:04;;;;;;;16.83;4.55;;;;;;;1.97;98.67;100044.34;4941011;28;20027;-65
2021/12/12 05:28:40;;;;;;;16.67;4.80;;;;;;;1.98;98.46;100043.38;4949592;28;20067;-66
2021/12/12 05:31:07;;;;;;;24.77;5.68;;;;;;;2.02;98.44;100050.81;4918939;28;20059;-65
2021/12/12 05:33:32;;;;;;;13.25;4.60;;;;;;;2.06;97.96;100053.94;4938271;28;20035;-66
2021/12/12 05:35:58;;;;;;;9.07;3.58;;;;;;;2.03;98.44;100055.09;4940589;28;20178;-66
2021/12/12 05:38:24;;;;;;;14.73;4.57;;;;;;;2.09;97.99;100050.97;4935047;28;20082;-66
2021/12/12 05:40:49;;;;;;;19.20;4.82;;;;;;;2.11;98.30;100059.56;4937883;29;20135;-65
2021/12/12 05:43:15;;;;;;;13.07;4.75;;;;;;;2.11;98.31;100054.28;4951106;28;20562;-66
2021/12/12 05:45:41;;;;;;;14.93;5.15;;;;;;;2.14;98.12;100060.03;4955440;28;20050;-66
2021/12/12 05:48:07;;;;;;;19.77;5.55;;;;;;;2.12;97.78;100055.91;4951073;28;20036;-65
2021/12/12 05:50:33;;;;;;;19.27;4.82;;;;;;;2.11;98.40;100049.81;4950636;28;20541;-65
2021/12/12 05:52:59;;;;;;;17.55;5.18;;;;;;;2.16;98.06;100047.47;4940421;28;20081;-65
2021/12/12 05:55:29;;;;;;;16.58;4.72;;;;;;;2.10;98.44;100052.63;4955311;28;20046;-65
2021/12/12 05:57:55;;;;;;;10.95;4.70;;;;;;;2.12;98.42;100054.13;4951046;28;20039;-65
2021/12/12 06:00:48;;;;;;;14.50;4.55;;;;;;;2.07;99.67;100050.28;4936299;28;20530;-64
2021/12/12 06:03:15;;;;;;;19.33;5.00;;;;;;;2.09;99.70;100051.78;4955158;28;20059;-66
2021/12/12 06:05:41;;;;;;;11.52;4.15;;;;;;;2.10;99.44;100060.56;4954040;28;20027;-67
2021/12/12 06:08:06;;;;;;;22.08;5.00;;;;;;;2.14;99.36;100053.94;4922945;28;20121;-66
2021/12/12 06:10:33;;;;;;;15.13;4.70;;;;;;;2.09;99.73;100061.53;4952555;28;20066;-66
2021/12/12 06:12:58;;;;;;;14.45;4.90;;;;;;;2.12;99.78;100063.84;4950911;28;20067;-66
2021/12/12 06:15:27;;;;;;;17.40;4.80;;;;;;;2.07;99.69;100066.16;4950769;28;20120;-66
2021/12/12 06:17:52;;;;;;;17.30;4.55;;;;;;;2.17;100.00;100058.88;4939372;28;20034;-66
2021/12/12 06:20:18;;;;;;;14.48;4.60;;;;;;;2.11;100.00;100060.38;4940545;28;20117;-66
2021/12/12 06:22:44;;;;;;;21.80;5.45;;;;;;;2.06;100.00;100072.47;4951354;28;20658;-66
2021/12/12 06:25:09;;;;;;;20.02;5.00;;;;;;;2.08;100.00;100065.19;4949589;28;20046;-67
2021/12/12 06:27:36;;;;;;;19.25;5.25;;;;;;;2.18;100.00;100052.59;4946664;28;20042;-66
2021/12/12 06:30:09;;;;;;;16.70;4.97;;;;;;;2.17;100.00;100058.88;4940625;28;20035;-66
2021/12/12 06:32:34;;;;;;;20.08;5.22;;;;;;;2.07;100.00;100069.66;4952258;28;20031;-66
2021/12/12 06:35:00;;;;;;;23.48;4.32;;;;;;;2.11;100.00;100078.91;4951042;28;20089;-67
2021/12/12 06:37:26;;;;;;;12.60;4.78;;;;;;;2.14;100.00;100069.78;4954359;28;20187;-66
2021/12/12 06:39:55;;;;;;;14.60;5.28;;;;;;;2.11;100.00;100072.78;4939767;28;20035;-65
2021/12/12 06:42:20;;;;;;;15.32;4.00;;;;;;;2.10;100.00;100074.59;4937718;28;20049;-66
2021/12/12 06:44:46;;;;;;;21.60;4.47;;;;;;;2.12;100.00;100062.06;4932354;28;20043;-66
2021/12/12 06:47:13;;;;;;;17.55;5.25;;;;;;;2.11;100.00;100059.56;4933697;28;20031;-67
2021/12/12 06:49:39;;;;;;;11.18;4.15;;;;;;;2.14;100.00;100061.88;4951957;28;20089;-66
2021/12/12 06:52:07;;;;;;;17.02;4.57;;;;;;;2.11;100.00;100056.91;4954662;28;20083;-66
2021/12/12 06:54:33;;;;;;;14.20;5.07;;;;;;;2.13;100.00;100062.88;4945147;28;20039;-66
2021/12/12 06:57:00;;;;;;;15.70;4.60;;;;;;;2.14;100.00;100054.75;4936996;28;20031;-66
2021/12/12 06:59:27;;;;;;;14.27;4.72;;;;;;;2.08;100.00;100066.00;4920080;28;20084;-65
2021/12/12 07:01:53;;;;;;;13.68;4.38;;;;;;;2.07;100.00;100068.81;4953778;28;20043;-66
2021/12/12 07:04:19;;;;;;;19.92;5.00;;;;;;;2.03;100.00;100072.78;4939247;28;20070;-66
2021/12/12 07:06:48;;;;;;;17.00;4.65;;;;;;;2.07;100.00;100069.66;4954191;28;20041;-66
2021/12/12 07:09:15;;;;;;;15.30;4.72;;;;;;;2.09;100.00;100069.47;4940847;28;20051;-65
2021/12/12 07:11:41;;;;;;;15.40;4.25;;;;;;;2.09;100.00;100065.00;4945154;28;20118;-65
2021/12/12 07:14:07;;;;;;;19.00;4.50;;;;;;;2.07;100.00;100053.78;4932637;28;20283;-65
2021/12/12 07:16:33;;;;;;;10.32;3.63;;;;;;;2.05;100.00;100065.53;4954251;28;20495;-66
2021/12/12 07:18:58;;;;;;;12.27;4.35;;;;;;;1.99;100.00;100063.53;4935234;28;20072;-66
2021/12/12 07:21:24;;;;;;;16.58;4.60;;;;;;;2.13;100.00;100068.16;4946736;28;20537;-66
2021/12/12 07:23:50;;;;;;;16.48;6.07;;;;;;;2.08;100.00;100065.19;4949030;28;20066;-65
2021/12/12 07:26:16;;;;;;;17.65;3.17;;;;;;;2.20;100.00;100060.34;4954603;28;20374;-66
2021/12/12 07:28:42;;;;;;;18.17;6.13;;;;;;;2.06;100.00;100064.53;4950639;28;20038;-65
2021/12/12 07:31:16;;;;;;;25.83;8.90;;;;;;;2.05;100.00;100049.66;4931780;28;20035;-65
2021/12/12 07:33:42;;;;;;;19.00;8.32;;;;;;;2.09;100.00;100061.53;4946821;28;20851;-65
2021/12/12 07:36:09;;;;;;;23.48;6.53;;;;;;;2.16;100.00;100054.59;4944371;28;20524;-65
2021/12/12 07:38:35;;;;;;;11.68;6.97;;;;;;;2.11;100.00;100062.19;4947119;28;20477;-65
2021/12/12 07:41:00;;;;;;;16.85;5.30;;;;;;;2.11;100.00;100055.09;4949382;28;20063;-65
2021/12/12 07:43:27;;;;;;;16.25;5.30;;;;;;;2.12;100.00;100058.56;4950054;28;20249;-65
2021/12/12 07:45:53;;;;;;;7.78;4.85;;;;;;;2.14;100.00;100072.44;4928566;28;20348;-65
2021/12/12 07:48:19;;;;;;;16.08;5.25;;;;;;;2.07;100.00;100079.38;4953276;28;20030;-65
2021/12/12 07:50:45;;;;;;;21.25;5.75;;;;;;;2.10;100.00;100073.78;4918400;28;20101;-65
2021/12/12 07:53:10;;;;;;;15.98;4.50;;;;;;;2.15;100.00;100082.03;4918387;28;20531;-65
2021/12/12 07:55:36;;;;;;;12.18;4.70;;;;;;;2.18;100.00;100081.72;4949151;28;20051;-65
2021/12/12 07:58:11;;;;;;;14.88;5.38;;;;;;;2.25;100.00;100085.34;4936944;28;20070;-65
2021/12/12 08:00:37;;;;;;;21.08;5.55;;;;;;;2.24;100.00;100080.19;4927556;28;20290;-65
2021/12/12 08:03:03;;;;;;;20.15;5.10;;;;;;;2.22;100.00;100080.38;4940994;28;20394;-65
2021/12/12 08:05:29;;;;;;;24.45;5.38;;;;;;;2.26;100.00;100079.03;4948759;28;20031;-65
2021/12/12 08:07:59;;;;;;;19.00;4.47;;;;;;;2.28;100.00;100087.63;4943191;28;20490;-65
2021/12/12 08:10:24;;;;;;;12.52;3.72;;;;;;;2.38;100.00;100095.41;4926057;29;20114;-66
2021/12/12 08:12:50;;;;;;;9.82;3.72;;;;;;;2.36;100.00;100100.84;4899665;29;20565;-64
2021/12/12 08:15:16;;;;;;;15.75;3.40;;;;;;;2.37;100.00;100099.88;4904719;29;20544;-64
2021/12/12 08:17:42;;;;;;;13.18;4.97;;;;;;;2.43;100.00;100094.91;4938933;29;20046;-64
2021/12/12 08:20:09;;;;;;;11.30;4.25;;;;;;;2.42;100.00;100104.66;4904382;29;20062;-64
2021/12/12 08:22:34;;;;;;;18.50;4.13;;;;;;;2.45;100.00;100108.78;4922215;29;20067;-64
2021/12/12 08:25:00;;;;;;;20.88;4.70;;;;;;;2.48;100.00;100109.28;4931473;29;20031;-64
2021/12/12 08:27:26;;;;;;;17.33;4.55;;;;;;;2.48;100.00;100100.50;4921592;29;20534;-65
2021/12/12 08:29:52;;;;;;;15.07;4.32;;;;;;;2.53;100.00;100114.06;4905100;29;20109;-64
2021/12/12 08:32:17;;;;;;;18.52;4.30;;;;;;;2.56;100.00;100116.38;4920579;29;20458;-64
2021/12/12 08:34:43;;;;;;;7.45;3.45;;;;;;;2.56;100.00;100114.53;4917634;29;20043;-64
2021/12/12 08:37:09;;;;;;;14.50;5.80;;;;;;;2.62;100.00;100112.22;4919225;29;20036;-65
2021/12/12 08:39:34;;;;;;;14.30;4.97;;;;;;;2.60;100.00;100109.75;4933369;29;20035;-64
2021/12/12 08:42:00;;;;;;;15.23;4.20;;;;;;;2.58;100.00;100101.97;4936307;28;20031;-64
2021/12/12 08:44:28;;;;;;;6.43;3.90;;;;;;;2.65;100.00;100103.97;4901825;28;20146;-64
2021/12/12 08:46:54;;;;;;;13.88;4.80;;;;;;;2.72;100.00;100110.19;4889022;29;20114;-64
2021/12/12 08:49:21;;;;;;;10.93;3.90;;;;;;;2.72;100.00;100111.03;4935697;29;20027;-65
2021/12/12 08:51:50;;;;;;;11.57;6.13;;;;;;;2.73;100.00;100107.38;4926232;28;20114;-65
2021/12/12 08:54:23;;;;;;;13.75;6.45;;;;;;;2.83;100.00;100116.97;4935396;29;20031;-65
2021/12/12 08:56:50;;;;;;;14.73;5.15;;;;;;;2.82;100.00;100116.13;4931238;29;20647;-64
2021/12/12 08:59:20;;;;;;;18.55;10.65;;;;;;;2.87;100.00;100118.25;4930661;29;20498;-65
2021/12/12 09:01:46;;;;;;;28.67;15.40;;;;;;;2.86;100.00;100111.31;4934696;29;20035;-64
2021/12/12 09:04:12;;;;;;;7.70;3.92;;;;;;;2.84;100.00;100108.00;4928433;29;20341;-64
2021/12/12 09:06:43;;;;;;;9.00;5.72;;;;;;;2.92;100.00;100124.72;4929239;29;20581;-64
2021/12/12 09:09:16;;;;;;;12.40;3.80;;;;;;;2.92;100.00;100118.56;4948051;28;20454;-64
2021/12/12 09:11:46;;;;;;;10.43;4.63;;;;;;;2.94;100.00;100113.94;4956894;28;20127;-65
2021/12/12 09:14:27;;;;;;;7.97;3.88;;;;;;;2.96;100.00;100122.53;4958219;28;20061;-65
2021/12/12 09:17:08;;;;;;;8.77;3.45;;;;;;;2.93;100.00;100122.91;4955544;28;20210;-65
2021/12/12 09:19:38;;;;;;;;;;;;;;;3.03;100.00;100126.16;4951892;28;20621;-64
2021/12/12 09:22:08;;;;;;;14.18;6.82;;;;;;;3.10;100.00;100119.19;4956681;28;19926;-64
2021/12/12 09:24:43;;;;;;;10.82;5.72;;;;;;;3.13;100.00;100112.72;4950678;28;20114;-65
2021/12/12 09:27:11;;;;;;;10.35;5.20;;;;;;;3.12;100.00;100106.59;4954262;28;20391;-64
2021/12/12 09:29:43;;;;;;;11.25;3.88;;;;;;;3.17;100.00;100104.25;4936184;28;20085;-65
2021/12/12 09:32:17;;;;;;;7.75;3.67;;;;;;;3.18;100.00;100095.28;4958463;28;20066;-64
2021/12/12 09:34:54;;;;;;;11.65;3.22;;;;;;;3.25;100.00;100100.75;4939911;28;20035;-64
2021/12/12 09:37:33;;;;;;;6.38;2.92;;;;;;;3.26;100.00;100106.84;4952984;28;20982;-65
2021/12/12 09:40:17;;;;;;;14.68;8.13;;;;;;;3.21;100.00;100102.91;4946755;28;20035;-65
2021/12/12 09:42:54;;;;;;;9.98;7.30;;;;;;;3.21;100.00;100105.53;4949538;28;20181;-65
2021/12/12 09:46:01;;;;;;;9.40;3.92;;;;;;;3.24;100.00;100112.31;4950626;28;20384;-65
2021/12/12 09:51:34;;;;;;;6.88;3.08;;;;;;;3.26;99.63;100104.22;4936714;28;20042;-65
2021/12/12 09:54:13;;;;;;;9.65;3.88;;;;;;;3.30;99.76;100114.28;4930768;28;20034;-65
2021/12/12 09:57:01;;;;;;;6.55;4.80;;;;;;;3.31;100.00;100110.63;4947062;28;20440;-65
2021/12/12 09:59:46;;;;;;;11.38;3.67;;;;;;;3.29;99.54;100112.63;4950978;28;20381;-65
2021/12/12 10:02:16;;;;;;;5.07;2.78;;;;;;;3.35;99.52;100101.34;4947757;28;20039;-65
2021/12/12 10:04:41;;;;;;;7.47;2.95;;;;;;;3.37;99.64;100109.94;4950833;28;20114;-65
2021/12/12 10:07:19;;;;;;;7.88;2.63;;;;;;;3.30;99.25;100108.19;4953004;28;20671;-65
2021/12/12 10:09:56;;;;;;;5.63;2.67;;;;;;;3.36;99.86;100102.97;4949043;28;20070;-65
2021/12/12 10:12:33;;;;;;;4.40;2.40;;;;;;;3.45;99.21;100093.19;4949788;28;20038;-65
2021/12/12 10:14:58;;;;;;;7.20;2.70;;;;;;;3.45;99.31;100082.56;4945350;28;20494;-65
2021/12/12 10:17:46;;;;;;;3.35;2.17;;;;;;;3.42;99.27;100096.16;4957121;28;20019;-65
2021/12/12 10:20:41;;;;;;;6.80;2.95;;;;;;;3.40;99.17;100088.41;4952731;28;20035;-66
2021/12/12 10:23:16;;;;;;;6.88;2.63;;;;;;;3.36;99.50;100096.88;4939502;28;20050;-65
2021/12/12 10:25:47;;;;;;;5.93;2.30;;;;;;;3.38;99.52;100101.00;4953534;28;20037;-66
2021/12/12 10:28:39;;;;;;;3.20;2.38;;;;;;;3.38;99.22;100097.53;4954008;28;20027;-65
2021/12/12 10:31:29;;;;;;;4.78;2.20;;;;;;;3.48;99.19;100090.16;4939114;28;20035;-65
2021/12/12 10:34:03;;;;;;;12.40;3.00;;;;;;;3.36;99.24;100102.97;4937672;28;20071;-65
2021/12/12 10:36:38;;;;;;;9.50;3.15;;;;;;;3.43;99.11;100103.13;4950869;28;20031;-65
2021/12/12 10:39:15;;;;;;;6.45;2.35;;;;;;;3.42;99.07;100106.75;4948747;28;20126;-65
2021/12/12 10:41:46;;;;;;;7.68;2.70;;;;;;;3.47;98.78;100109.72;4954457;28;20035;-65
2021/12/12 10:44:12;;;;;;;8.70;3.03;;;;;;;3.58;98.77;100117.28;4948459;28;20027;-65
2021/12/12 10:46:50;;;;;;;16.35;3.60;;;;;;;3.55;99.08;100108.84;4954183;28;20060;-65
2021/12/12 10:49:27;;;;;;;6.28;3.25;;;;;;;3.39;99.06;100123.81;4955195;28;20158;-65
2021/12/12 10:51:57;;;;;;;9.68;3.70;;;;;;;3.47;98.88;100117.69;4947333;28;20142;-65
2021/12/12 10:54:32;;;;;;;12.75;5.93;;;;;;;3.54;98.50;100115.97;4928118;28;20043;-66
2021/12/12 10:57:07;;;;;;;12.95;5.85;;;;;;;3.60;98.21;100103.84;4936172;28;20485;-65
2021/12/12 10:59:40;;;;;;;9.60;3.05;;;;;;;3.59;97.67;100107.50;4938500;28;20066;-66
2021/12/12 11:02:08;;;;;;;15.02;9.38;;;;;;;3.70;98.08;100103.63;4936345;28;20043;-65
2021/12/12 11:04:56;;;;;;;5.70;2.75;;;;;;;3.66;97.75;100097.84;4954221;28;20464;-66
2021/12/12 11:07:27;;;;;;;6.43;3.10;;;;;;;3.58;97.76;100090.75;4956155;28;20033;-66
2021/12/12 11:10:12;;;;;;;11.55;5.63;;;;;;;3.73;98.13;100111.22;4949663;28;20041;-65
2021/12/12 11:12:58;;;;;;;6.82;3.05;;;;;;;3.72;97.82;100122.81;4949527;28;20043;-65
2021/12/12 11:15:38;;;;;;;10.38;3.58;;;;;;;3.69;98.38;100118.69;4932778;28;20190;-65
2021/12/12 11:18:06;;;;;;;;;;;;;;;3.63;98.72;100132.66;4946420;28;20077;-65
2021/12/12 11:20:35;;;;;;;6.75;2.38;;;;;;;3.64;97.84;100129.00;4956277;28;20447;-65
2021/12/12 11:23:48;;;;;;;6.32;4.22;;;;;;;3.67;98.68;100124.19;4951541;28;20039;-65
2021/12/12 11:26:18;;;;;;;7.95;2.97;;;;;;;3.66;98.87;100134.94;4937022;28;20039;-65
2021/12/12 11:28:48;;;;;;;9.85;3.70;;;;;;;3.74;99.30;100126.13;4938059;28;20039;-65
2021/12/12 11:31:26;;;;;;;5.75;2.97;;;;;;;3.74;98.74;100115.50;4924589;28;20038;-66
2021/12/12 11:33:53;;;;;;;5.40;3.05;;;;;;;3.81;98.45;100127.88;4920162;29;20034;-66
2021/12/12 11:36:25;;;;;;;11.18;3.58;;;;;;;3.76;98.45;100140.03;4945818;28;20050;-66
2021/12/12 11:39:16;;;;;;;16.05;6.38;;;;;;;3.82;98.07;100144.63;4935884;28;20053;-66
2021/12/12 11:42:05;;;;;;;9.02;4.13;;;;;;;3.86;97.79;100151.22;4929762;29;20477;-66
2021/12/12 11:44:51;;;;;;;9.35;3.42;;;;;;;3.82;97.60;100139.31;4932213;28;20382;-67
2021/12/12 11:47:41;;;;;;;7.35;2.38;;;;;;;3.91;97.13;100132.97;4928731;28;20443;-68
2021/12/12 11:50:09;;;;;;;6.35;3.10;;;;;;;3.96;97.37;100116.53;4934509;28;20059;-67
2021/12/12 11:52:54;;;;;;;7.78;2.72;;;;;;;4.13;96.41;100125.19;4928348;29;20130;-67
2021/12/12 11:55:25;;;;;;;6.68;3.40;;;;;;;4.20;95.90;100131.44;4950415;28;20031;-67
2021/12/12 11:58:14;;;;;;;19.02;11.57;;;;;;;4.13;95.72;100130.47;4925524;28;20509;-67